Pomona, CA

5:32 AM PDT on August 23, 2014 (GMT -0700)
Brackett | Change Station
CLOSE
Current Station
Airport
Location: La Verne,
Elevation: 1010 ft
Nearby Weather Stations

Elev 1010 ft 34.09 °N, 117.78 °W | Updated 8 hours ago

Fog
Fog
62 °F
Feels Like 62 °F
N
3
Wind Variable Wind from SW
Gusts mph

Today
High -- | Low -- °F
--% Chance of Precip.
Yesterday
High -- | Low -- °F
Precip. -- in
6:18 AM 7:28 PM
Waning Crescent, 4% visible
Pressure 29.98 in
Visibility 10.0 miles
Clouds Clear
Dew Point 62 °F
Humidity 97%
Rainfall 0.00 in
Snow Depth Not available.
UV 0 out of 12
Pollen 5.80 out of 12
Ozone Good
Flu Activity Not available.
METAR KPOC 230347Z 22007KT 10SM CLR 22/16 A2998

More Conditions Fewer Conditions

Pressure 29.98 in
Visibility 10.0 miles
Clouds Clear
Dew Point 62 °F
Humidity 97%
Rainfall 0.00 in
Snow Depth Not available.
UV 0 out of 12
Pollen 5.80 out of 12
Ozone Good
Flu Activity Not available.
METAR KPOC 230347Z 22007KT 10SM CLR 22/16 A2998

More Conditions Fewer Conditions

10-Day Weather Forecast

Almanac

Astronomy

Aug. 23, 2014 Rise Set
Actual Time 6:18 AM PDT 7:28 PM PDT
Civil Twilight 5:52 AM PDT 7:54 PM PDT
Nautical Twilight 5:21 AM PDT 8:25 PM PDT
Astronomical Twilight 4:49 AM PDT 8:57 PM PDT
Moon 4:40 AM PDT 6:15 PM PDT
Length of Visible Light 14h 01m
Length of Day
13h 09m
Tomorrow will be 1m 58s shorter.
Waning Crescent, 4% of the Moon is Illuminated
Today
Waning Crescent
Aug 25
New
Sep 2
First Quarter
Sep 8
Full
Sep 15
Last Quarter

Today's Extremes

State Highs State Lows

Community

WunderPhotos

Upload Photos

1,746,428 photos uploaded!

WunderBlogs® & News

By Dr. Jeff Masters
Director of Meteorology, Weather Underground
By Kari Strenfel
Meteorologist, Weather Underground
By Christopher C. Burt
Weather Historian, Weather Underground
August 23, 2014
August 23, 2014
August 23, 2014

Nearby

Air Quality

  Air Quality AQ Index Pollutant
Yesterday Good
OZONE
Current Good
OZONE
Sunday Good
PM10
Sunday Moderate
OZONE
Sunday Good
CO
Sunday Good
NO2

Snow Depth

Station Depth Elevation
Leavitt Lake 0 in 9400 ft
Leavitt Meadows 1 in 7200 ft
Sonora Pass 0 in 8800 ft
Summit Meadow 1 in 9122 ft
Poison Flat 0 in 7900 ft

Earthquake Activity

City Distance Mag. Time & Date
West Hills, California 51 miles 2.5 4:21 AM PDT
2014-08-18
Big Bear City, California 60 miles 3.7 9:55 PM PDT
2014-08-17
Minimum magnitude displayed is 2.5.

Coastal Water Temperatures

Place Temperature
Santa Monica Pier 66.9 °F
Los Angeles, CA 68.0 °F
La Jolla, CA 72.0 °F

Nearby Weather Stations